Time;durP1;ratioP1;P1;durP2;ratioP2;P2;SDS_P1;SDS_P2;PMS_P1;PMS_P2;Temp;Humidity;BMP_temperature;BMP_pressure;BME280_temperature;BME280_humidity;BME280_pressure;Samples;Min_cycle;Max_cycle;Signal;HPM_P1;HPM_P2
2022/11/14 00:01:56;;;;;;;2.60;1.80;;;;;;;;;;4999023;28;20084;-83
2022/11/14 00:04:40;;;;;;;2.38;1.80;;;;;;;;;;4998545;28;20041;-83
2022/11/14 00:07:23;;;;;;;;;;;;;;;;;;4998633;28;20132;-82
2022/11/14 00:10:08;;;;;;;2.25;1.80;;;;;;;;;;4998224;28;20306;-82
2022/11/14 00:12:52;;;;;;;2.30;1.67;;;;;;;;;;4984450;28;20048;-82
2022/11/14 00:15:36;;;;;;;;;;;;;;;;;;4997979;28;20511;-82
2022/11/14 00:18:20;;;;;;;2.30;1.60;;;;;;;;;;4998571;28;20416;-82
2022/11/14 00:21:04;;;;;;;4.00;1.70;;;;;;;;;;4983843;28;20057;-82
2022/11/14 00:23:48;;;;;;;2.10;1.60;;;;;;;;;;4983812;28;20099;-82
2022/11/14 00:26:32;;;;;;;2.42;1.80;;;;;;;;;;4999010;28;20050;-84
2022/11/14 00:29:16;;;;;;;2.95;1.80;;;;;;;;;;4998478;28;20053;-83
2022/11/14 00:32:00;;;;;;;;;;;;;;;;;;4999019;28;20049;-81
2022/11/14 00:34:44;;;;;;;3.85;1.70;;;;;;;;;;4998264;28;19925;-83
2022/11/14 00:37:28;;;;;;;3.25;1.67;;;;;;;;;;4998249;28;20053;-82
2022/11/14 00:40:13;;;;;;;;;;;;;;;;;;4999336;28;20088;-81
2022/11/14 00:42:57;;;;;;;3.58;1.75;;;;;;;;;;4998132;28;19978;-83
2022/11/14 00:45:43;;;;;;;2.63;1.85;;;;;;;;;;4997380;28;20182;-83
2022/11/14 00:48:27;;;;;;;2.38;1.75;;;;;;;;;;4998070;28;20053;-82
2022/11/14 00:51:11;;;;;;;;;;;;;;;;;;4998725;28;20134;-81
2022/11/14 00:53:55;;;;;;;2.30;1.60;;;;;;;;;;4997964;28;20550;-82
2022/11/14 00:56:39;;;;;;;2.80;1.90;;;;;;;;;;4997624;28;20122;-83
2022/11/14 00:59:23;;;;;;;3.03;1.92;;;;;;;;;;4998095;28;20052;-83
2022/11/14 01:02:07;;;;;;;3.10;1.98;;;;;;;;;;4997300;28;20531;-83
2022/11/14 01:04:51;;;;;;;;;;;;;;;;;;4997505;28;20126;-80
2022/11/14 01:07:36;;;;;;;2.92;1.80;;;;;;;;;;4997540;28;19960;-82
2022/11/14 01:10:19;;;;;;;;;;;;;;;;;;4997248;28;20073;-80
2022/11/14 01:13:03;;;;;;;2.50;1.80;;;;;;;;;;4996917;28;19920;-83
2022/11/14 01:15:48;;;;;;;2.63;1.73;;;;;;;;;;4995817;28;20045;-82
2022/11/14 01:18:33;;;;;;;2.45;1.77;;;;;;;;;;4996360;28;20092;-82
2022/11/14 01:21:17;;;;;;;3.28;2.10;;;;;;;;;;4997250;28;20053;-83
2022/11/14 01:24:00;;;;;;;3.15;2.10;;;;;;;;;;4997468;28;20076;-82
2022/11/14 01:26:44;;;;;;;2.40;1.80;;;;;;;;;;4997241;28;20144;-82
2022/11/14 01:29:29;;;;;;;2.78;1.88;;;;;;;;;;4997464;28;20045;-83
2022/11/14 01:32:12;;;;;;;3.95;2.13;;;;;;;;;;4997369;28;20135;-83
2022/11/14 01:34:56;;;;;;;3.22;1.80;;;;;;;;;;4996623;28;20092;-83
2022/11/14 01:37:40;;;;;;;3.10;1.95;;;;;;;;;;4997783;28;20712;-83
2022/11/14 01:40:25;;;;;;;3.17;2.00;;;;;;;;;;4998004;28;20581;-83
2022/11/14 01:43:15;;;;;;;2.72;1.95;;;;;;;;;;4997185;28;20458;-82
2022/11/14 01:46:11;;;;;;;3.35;2.00;;;;;;;;;;4997423;28;20046;-83
2022/11/14 01:49:16;;;;;;;2.38;1.80;;;;;;;;;;4997072;28;20046;-83
2022/11/14 01:52:07;;;;;;;2.78;2.03;;;;;;;;;;4996825;28;20435;-82
2022/11/14 01:54:56;;;;;;;3.70;2.20;;;;;;;;;;4996362;28;20139;-82
2022/11/14 01:57:44;;;;;;;7.13;2.05;;;;;;;;;;4996582;28;20056;-82
2022/11/14 02:00:29;;;;;;;5.43;2.30;;;;;;;;;;4997615;28;20054;-82
2022/11/14 02:03:14;;;;;;;5.85;2.72;;;;;;;;;;4981927;28;20049;-82
2022/11/14 02:06:00;;;;;;;2.97;2.28;;;;;;;;;;4995829;28;20518;-82
2022/11/14 02:08:45;;;;;;;3.40;2.25;;;;;;;;;;4995353;28;20053;-82
2022/11/14 02:11:32;;;;;;;3.08;2.20;;;;;;;;;;4997131;28;20454;-82
2022/11/14 02:14:16;;;;;;;3.05;2.00;;;;;;;;;;4997612;28;20133;-83
2022/11/14 02:17:00;;;;;;;2.70;2.03;;;;;;;;;;5000885;28;20480;-82
2022/11/14 02:19:50;;;;;;;3.20;1.98;;;;;;;;;;4985876;28;20077;-82
2022/11/14 02:22:34;;;;;;;3.92;2.20;;;;;;;;;;5000727;28;20089;-82
2022/11/14 02:25:19;;;;;;;4.20;2.47;;;;;;;;;;5000184;28;20101;-82
2022/11/14 02:28:06;;;;;;;3.25;2.13;;;;;;;;;;5000589;28;20042;-82
2022/11/14 02:30:50;;;;;;;2.83;1.92;;;;;;;;;;5000251;28;20041;-82
2022/11/14 02:33:34;;;;;;;3.70;2.10;;;;;;;;;;5000186;28;20053;-82
2022/11/14 02:36:18;;;;;;;3.00;1.98;;;;;;;;;;5000272;28;20177;-82
2022/11/14 02:39:02;;;;;;;3.08;2.17;;;;;;;;;;5000141;28;20053;-82
2022/11/14 02:41:46;;;;;;;5.35;2.25;;;;;;;;;;4999852;28;20615;-82
2022/11/14 02:44:30;;;;;;;3.30;2.20;;;;;;;;;;4999271;28;20052;-82
2022/11/14 02:47:14;;;;;;;4.40;2.17;;;;;;;;;;4999550;28;20084;-82
2022/11/14 02:49:57;;;;;;;2.58;1.98;;;;;;;;;;5000269;28;20101;-81
2022/11/14 02:52:42;;;;;;;2.90;2.10;;;;;;;;;;4999815;28;20048;-82
2022/11/14 02:55:25;;;;;;;5.20;2.10;;;;;;;;;;4998922;28;20074;-82
2022/11/14 02:58:09;;;;;;;3.03;2.00;;;;;;;;;;4985009;28;20096;-82
2022/11/14 03:00:53;;;;;;;3.72;1.95;;;;;;;;;;4999542;28;20045;-82
2022/11/14 03:03:37;;;;;;;3.42;2.00;;;;;;;;;;4984674;28;20049;-82
2022/11/14 03:06:22;;;;;;;2.83;1.80;;;;;;;;;;4984141;28;20049;-82
2022/11/14 03:09:06;;;;;;;2.72;1.70;;;;;;;;;;4999564;28;20475;-82
2022/11/14 03:11:49;;;;;;;2.78;1.75;;;;;;;;;;4999170;28;20077;-82
2022/11/14 03:14:33;;;;;;;2.17;1.60;;;;;;;;;;4997163;28;20049;-82
2022/11/14 03:17:17;;;;;;;2.20;1.60;;;;;;;;;;4998339;28;20093;-82
2022/11/14 03:20:01;;;;;;;3.10;1.60;;;;;;;;;;4998460;28;20162;-82
2022/11/14 03:22:45;;;;;;;3.75;1.70;;;;;;;;;;4998989;28;20053;-82
2022/11/14 03:25:29;;;;;;;3.55;1.40;;;;;;;;;;4998347;28;20173;-82
2022/11/14 03:28:16;;;;;;;3.67;1.63;;;;;;;;;;4984386;28;20052;-82
2022/11/14 03:31:01;;;;;;;1.50;1.27;;;;;;;;;;4998862;28;20197;-82
2022/11/14 03:33:45;;;;;;;1.80;1.30;;;;;;;;;;4998836;28;20048;-82
2022/11/14 03:36:29;;;;;;;2.13;1.30;;;;;;;;;;4998619;28;20077;-82
2022/11/14 03:39:12;;;;;;;;;;;;;;;;;;4999314;28;20069;-80
2022/11/14 03:41:57;;;;;;;1.60;1.20;;;;;;;;;;4998480;28;19920;-82
2022/11/14 03:44:40;;;;;;;1.80;1.30;;;;;;;;;;4998650;28;20049;-82
2022/11/14 03:47:25;;;;;;;1.98;1.10;;;;;;;;;;4998149;28;20081;-82
2022/11/14 03:50:08;;;;;;;;;;;;;;;;;;4999347;28;20114;-80
2022/11/14 03:52:53;;;;;;;1.90;1.05;;;;;;;;;;4998986;28;20279;-82
2022/11/14 03:55:37;;;;;;;1.63;1.20;;;;;;;;;;4983117;28;20053;-82
2022/11/14 03:58:22;;;;;;;1.30;1.10;;;;;;;;;;4998578;28;20078;-82
2022/11/14 04:01:06;;;;;;;2.97;1.08;;;;;;;;;;4998770;28;20052;-82
2022/11/14 04:03:50;;;;;;;1.08;0.93;;;;;;;;;;4998311;28;20563;-82
2022/11/14 04:06:34;;;;;;;0.90;0.80;;;;;;;;;;4998849;28;20088;-83
2022/11/14 04:09:18;;;;;;;1.80;0.63;;;;;;;;;;4983985;28;20049;-82
2022/11/14 04:12:02;;;;;;;0.85;0.80;;;;;;;;;;4998317;28;20057;-82
2022/11/14 04:14:46;;;;;;;2.03;0.90;;;;;;;;;;4995797;28;20137;-82
2022/11/14 04:17:30;;;;;;;0.95;0.85;;;;;;;;;;4997914;28;20056;-82
2022/11/14 04:20:14;;;;;;;0.90;0.80;;;;;;;;;;4998784;28;20097;-82
2022/11/14 04:22:58;;;;;;;0.80;0.70;;;;;;;;;;4998741;28;20049;-82
2022/11/14 04:25:44;;;;;;;0.88;0.70;;;;;;;;;;4997490;28;20506;-82
2022/11/14 04:28:28;;;;;;;0.93;0.75;;;;;;;;;;4998172;28;20049;-82
2022/11/14 04:31:11;;;;;;;1.10;0.90;;;;;;;;;;4997846;28;20254;-82
2022/11/14 04:33:55;;;;;;;;;;;;;;;;;;4997497;28;20049;-79
2022/11/14 04:36:39;;;;;;;1.02;0.90;;;;;;;;;;4997189;28;20053;-82
2022/11/14 04:39:23;;;;;;;;;;;;;;;;;;4997821;28;20052;-80
2022/11/14 04:42:07;;;;;;;0.88;0.70;;;;;;;;;;4997556;28;19920;-82
2022/11/14 04:44:51;;;;;;;0.82;0.77;;;;;;;;;;4996814;28;20088;-82
2022/11/14 04:47:35;;;;;;;0.88;0.70;;;;;;;;;;4997399;28;20521;-82
2022/11/14 04:50:20;;;;;;;1.95;1.48;;;;;;;;;;4997740;28;20128;-82
2022/11/14 04:53:04;;;;;;;5.70;4.40;;;;;;;;;;4997614;28;20201;-82
2022/11/14 04:55:48;;;;;;;3.10;2.50;;;;;;;;;;4996684;28;20038;-82
2022/11/14 04:58:32;;;;;;;2.35;1.85;;;;;;;;;;4997237;28;20088;-82
2022/11/14 05:01:16;;;;;;;2.08;1.50;;;;;;;;;;4997283;28;20124;-82
2022/11/14 05:04:00;;;;;;;2.53;2.10;;;;;;;;;;4996865;28;20093;-82
2022/11/14 05:06:43;;;;;;;;;;;;;;;;;;4996626;28;20057;-80
2022/11/14 05:09:27;;;;;;;1.70;1.20;;;;;;;;;;4982340;28;20437;-83
2022/11/14 05:12:12;;;;;;;1.00;0.90;;;;;;;;;;4996810;28;20541;-82
2022/11/14 05:14:56;;;;;;;1.50;1.10;;;;;;;;;;4994967;28;20530;-82
2022/11/14 05:17:39;;;;;;;;;;;;;;;;;;4996945;28;20061;-80
2022/11/14 05:20:24;;;;;;;1.65;1.10;;;;;;;;;;5016551;28;19983;-82
2022/11/14 05:23:26;;;;;;;1.95;1.20;;;;;;;;;;5017495;28;20048;-82
2022/11/14 05:26:14;;;;;;;2.45;1.30;;;;;;;;;;5016242;28;20044;-82
2022/11/14 05:28:58;;;;;;;4.95;2.20;;;;;;;;;;5017075;28;20563;-82
2022/11/14 05:31:43;;;;;;;5.32;2.30;;;;;;;;;;5016543;28;20402;-82
2022/11/14 05:34:27;;;;;;;6.20;2.42;;;;;;;;;;5016044;28;20053;-82
2022/11/14 05:37:11;;;;;;;4.55;2.00;;;;;;;;;;5015988;28;20061;-82
2022/11/14 05:39:55;;;;;;;2.08;1.17;;;;;;;;;;5016392;28;20045;-83
2022/11/14 05:42:39;;;;;;;1.15;0.85;;;;;;;;;;5015932;28;20045;-83
2022/11/14 05:45:23;;;;;;;1.35;0.80;;;;;;;;;;5015400;28;20048;-83
2022/11/14 05:48:06;;;;;;;;;;;;;;;;;;5019776;28;20052;-80
2022/11/14 05:50:59;;;;;;;2.58;1.20;;;;;;;;;;5005467;28;19963;-83
2022/11/14 05:53:43;;;;;;;4.97;1.73;;;;;;;;;;5021259;28;20060;-82
2022/11/14 05:56:27;;;;;;;4.80;1.70;;;;;;;;;;5020046;28;20057;-83
2022/11/14 05:59:11;;;;;;;2.08;1.23;;;;;;;;;;5020174;28;20433;-83
2022/11/14 06:01:58;;;;;;;;;;;;;;;;;;5020042;28;20200;-79
2022/11/14 06:04:42;;;;;;;1.35;1.00;;;;;;;;;;5019267;28;19920;-82
2022/11/14 06:07:26;;;;;;;1.30;1.00;;;;;;;;;;5020215;28;20095;-82
2022/11/14 06:10:10;;;;;;;2.30;1.50;;;;;;;;;;5020746;28;20521;-83
2022/11/14 06:12:54;;;;;;;2.30;1.52;;;;;;;;;;5020313;28;20040;-83
2022/11/14 06:15:38;;;;;;;2.20;1.50;;;;;;;;;;5019491;28;20104;-83
2022/11/14 06:18:22;;;;;;;;;;;;;;;;;;5020507;28;20059;-80
2022/11/14 06:21:11;;;;;;;4.75;1.48;;;;;;;;;;5004744;28;19967;-83
2022/11/14 06:23:56;;;;;;;6.07;2.88;;;;;;;;;;5005127;28;20053;-82
2022/11/14 06:26:39;;;;;;;;;;;;;;;;;;5020231;28;20122;-80
2022/11/14 06:29:23;;;;;;;2.97;1.88;;;;;;;;;;5019423;28;19977;-82
2022/11/14 06:32:07;;;;;;;3.25;1.73;;;;;;;;;;5004289;28;20044;-82
2022/11/14 06:34:51;;;;;;;6.70;2.33;;;;;;;;;;5019258;28;20069;-82
2022/11/14 06:37:39;;;;;;;2.35;1.42;;;;;;;;;;5019778;28;20072;-82
2022/11/14 06:40:23;;;;;;;1.95;1.33;;;;;;;;;;5019499;28;20045;-82
2022/11/14 06:43:07;;;;;;;1.65;1.17;;;;;;;;;;5019673;28;20466;-83
2022/11/14 06:45:54;;;;;;;2.00;1.40;;;;;;;;;;5020044;28;20673;-82
2022/11/14 06:48:39;;;;;;;4.07;2.35;;;;;;;;;;5020455;28;20052;-83
2022/11/14 06:51:23;;;;;;;2.53;1.80;;;;;;;;;;5019694;28;20096;-82
2022/11/14 06:54:09;;;;;;;;;;;;;;;;;;5021388;28;20181;-80
2022/11/14 06:56:54;;;;;;;2.92;1.40;;;;;;;;;;5019893;28;20506;-82
2022/11/14 06:59:38;;;;;;;2.20;1.27;;;;;;;;;;5017528;28;20537;-82
2022/11/14 07:02:22;;;;;;;2.08;1.35;;;;;;;;;;5018386;28;20049;-82
2022/11/14 07:05:06;;;;;;;1.90;1.23;;;;;;;;;;5018078;28;20056;-82
2022/11/14 07:07:50;;;;;;;;;;;;;;;;;;5020531;28;20346;-80
2022/11/14 07:10:34;;;;;;;1.80;1.50;;;;;;;;;;5018971;28;20551;-82
2022/11/14 07:13:18;;;;;;;3.30;1.40;;;;;;;;;;5016873;28;20045;-82
2022/11/14 07:16:02;;;;;;;;;;;;;;;;;;5018478;28;20419;-80
2022/11/14 07:18:46;;;;;;;1.92;1.38;;;;;;;;;;5019223;28;19920;-83
2022/11/14 07:21:33;;;;;;;2.30;1.63;;;;;;;;;;5017758;28;20126;-82
2022/11/14 07:24:17;;;;;;;2.17;1.58;;;;;;;;;;5017192;28;20426;-83
2022/11/14 07:27:01;;;;;;;3.45;1.70;;;;;;;;;;5018584;28;20072;-82
2022/11/14 07:29:45;;;;;;;2.72;1.48;;;;;;;;;;5003092;28;20104;-82
2022/11/14 07:32:32;;;;;;;1.65;1.33;;;;;;;;;;5017241;28;20064;-82
2022/11/14 07:35:17;;;;;;;2.30;1.73;;;;;;;;;;5016749;28;20096;-83
2022/11/14 07:38:02;;;;;;;2.13;1.40;;;;;;;;;;5017827;28;20068;-83
2022/11/14 07:41:01;;;;;;;1.50;1.30;;;;;;;;;;5018279;28;20139;-83
2022/11/14 07:43:45;;;;;;;1.60;1.10;;;;;;;;;;5002385;28;20041;-82
2022/11/14 07:46:29;;;;;;;1.70;1.10;;;;;;;;;;5017929;28;20129;-83
2022/11/14 07:49:12;;;;;;;2.75;1.20;;;;;;;;;;5018553;28;20120;-83
2022/11/14 07:51:56;;;;;;;4.80;1.48;;;;;;;;;;5018573;28;20059;-82
2022/11/14 07:54:40;;;;;;;;;;;;;;;;;;5018310;28;20049;-80
2022/11/14 07:57:25;;;;;;;2.00;1.48;;;;;;;;;;5017842;28;20432;-83
2022/11/14 08:00:09;;;;;;;1.98;1.30;;;;;;;;;;5017781;28;20073;-83
2022/11/14 08:02:54;;;;;;;3.65;1.40;;;;;;;;;;5017635;28;20049;-83
2022/11/14 08:05:38;;;;;;;2.00;1.10;;;;;;;;;;5017185;28;20053;-83
2022/11/14 08:08:22;;;;;;;;;;;;;;;;;;5017213;28;20061;-80
2022/11/14 08:11:05;;;;;;;2.50;1.40;;;;;;;;;;5016589;28;19920;-83
2022/11/14 08:13:49;;;;;;;2.55;1.40;;;;;;;;;;5014810;28;20052;-82
2022/11/14 08:16:33;;;;;;;3.60;1.45;;;;;;;;;;5016587;28;20045;-83
2022/11/14 08:19:17;;;;;;;2.03;1.25;;;;;;;;;;5016334;28;20544;-82
2022/11/14 08:22:01;;;;;;;4.40;2.40;;;;;;;;;;5016675;28;20541;-82
2022/11/14 08:24:45;;;;;;;3.75;2.20;;;;;;;;;;5016692;28;20124;-83
2022/11/14 08:27:29;;;;;;;3.40;1.80;;;;;;;;;;5016522;28;20411;-83
2022/11/14 08:30:14;;;;;;;1.70;1.08;;;;;;;;;;5016105;28;20053;-83
2022/11/14 08:33:06;;;;;;;1.42;1.00;;;;;;;;;;5113892;27;20382;-82
2022/11/14 08:35:50;;;;;;;5.03;2.00;;;;;;;;;;5111206;28;20042;-83
2022/11/14 08:38:34;;;;;;;3.25;1.92;;;;;;;;;;5112024;28;20054;-84
2022/11/14 08:41:18;;;;;;;3.75;1.50;;;;;;;;;;5112408;28;20141;-82
2022/11/14 08:44:02;;;;;;;2.00;1.30;;;;;;;;;;5110429;28;20047;-83
2022/11/14 08:46:46;;;;;;;1.67;1.20;;;;;;;;;;5112100;28;20039;-84
2022/11/14 08:49:30;;;;;;;6.60;3.50;;;;;;;;;;5111811;28;20462;-84
2022/11/14 08:52:13;;;;;;;;;;;;;;;;;;5113003;28;20412;-84
2022/11/14 08:54:57;;;;;;;1.60;1.00;;;;;;;;;;5112370;28;19977;-85
2022/11/14 08:57:41;;;;;;;;;;;;;;;;;;5113244;28;20047;-83
2022/11/14 09:00:25;;;;;;;2.20;1.30;;;;;;;;;;5114026;28;19935;-84
2022/11/14 09:03:12;;;;;;;3.05;1.33;;;;;;;;;;5113037;28;20046;-84
2022/11/14 09:05:56;;;;;;;4.85;1.40;;;;;;;;;;5112682;28;20523;-84
2022/11/14 09:08:40;;;;;;;1.52;1.00;;;;;;;;;;5113333;28;20047;-84
2022/11/14 09:11:24;;;;;;;2.00;0.85;;;;;;;;;;5114615;28;20038;-83
2022/11/14 09:14:08;;;;;;;1.42;0.80;;;;;;;;;;5111484;28;20050;-84
2022/11/14 09:16:52;;;;;;;1.20;0.80;;;;;;;;;;5112991;28;20078;-84
2022/11/14 09:19:36;;;;;;;1.38;0.73;;;;;;;;;;5113310;28;20058;-84
2022/11/14 09:22:22;;;;;;;1.23;0.88;;;;;;;;;;5112871;28;20046;-84
2022/11/14 09:25:06;;;;;;;1.33;0.80;;;;;;;;;;5112872;28;20047;-84
2022/11/14 09:27:52;;;;;;;1.88;0.90;;;;;;;;;;5112153;28;20124;-84
2022/11/14 09:30:36;;;;;;;1.80;0.90;;;;;;;;;;5112300;28;20050;-84
2022/11/14 09:33:20;;;;;;;0.70;0.50;;;;;;;;;;5112646;28;20035;-84
2022/11/14 09:36:07;;;;;;;0.52;0.40;;;;;;;;;;5113368;28;20047;-85
2022/11/14 09:38:51;;;;;;;0.63;0.63;;;;;;;;;;5110899;28;20043;-84
2022/11/14 09:41:57;;;;;;;0.95;0.70;;;;;;;;;;5111167;28;20119;-83
2022/11/14 09:44:58;;;;;;;1.02;0.80;;;;;;;;;;5096190;28;20043;-83
2022/11/14 09:47:45;;;;;;;2.78;0.93;;;;;;;;;;5097227;28;20128;-84
2022/11/14 09:50:36;;;;;;;0.75;0.75;;;;;;;;;;5097471;28;20046;-83
2022/11/14 09:53:40;;;;;;;0.77;0.60;;;;;;;;;;5096929;28;20049;-83
2022/11/14 09:56:25;;;;;;;1.20;0.80;;;;;;;;;;5096603;28;20106;-83
2022/11/14 09:59:13;;;;;;;3.78;0.90;;;;;;;;;;5096719;28;20408;-83
2022/11/14 10:02:13;;;;;;;1.95;0.95;;;;;;;;;;5096602;28;20073;-84
2022/11/14 10:05:21;;;;;;;0.70;0.68;;;;;;;;;;5095817;28;20511;-84
2022/11/14 10:08:28;;;;;;;1.02;0.63;;;;;;;;;;5095764;28;20062;-85
2022/11/14 10:11:21;;;;;;;2.03;0.70;;;;;;;;;;5098863;28;20043;-85
2022/11/14 10:14:27;;;;;;;1.33;0.90;;;;;;;;;;5096207;28;20100;-85
2022/11/14 10:17:31;;;;;;;1.92;1.15;;;;;;;;;;5097711;28;20101;-87
2022/11/14 10:20:18;;;;;;;1.10;0.98;;;;;;;;;;5096351;28;20058;-85
2022/11/14 10:23:22;;;;;;;1.95;0.90;;;;;;;;;;5096070;28;20161;-86
2022/11/14 10:26:18;;;;;;;;;;;;;;;;;;5095948;28;20047;-86
2022/11/14 10:29:23;;;;;;;1.02;0.70;;;;;;;;;;5095574;28;19920;-86
2022/11/14 10:32:23;;;;;;;2.60;0.98;;;;;;;;;;5097329;28;20055;-86
2022/11/14 10:35:15;;;;;;;1.50;1.00;;;;;;;;;;5096979;28;20055;-86
2022/11/14 10:38:09;;;;;;;1.55;1.27;;;;;;;;;;5097740;28;20085;-86
2022/11/14 10:40:57;;;;;;;10.63;4.68;;;;;;;;;;5097132;28;20412;-86
2022/11/14 10:43:46;;;;;;;0.98;0.80;;;;;;;;;;5096901;28;20050;-87
2022/11/14 10:46:40;;;;;;;0.60;0.60;;;;;;;;;;5095932;28;20074;-86
2022/11/14 10:49:25;;;;;;;0.77;0.60;;;;;;;;;;5096175;28;20055;-86
2022/11/14 10:52:19;;;;;;;0.70;0.70;;;;;;;;;;5095315;28;20047;-86
2022/11/14 10:55:13;;;;;;;0.60;0.60;;;;;;;;;;5095456;28;20113;-86
2022/11/14 10:57:57;;;;;;;0.50;0.50;;;;;;;;;;5097131;28;20055;-86
2022/11/14 11:00:41;;;;;;;0.82;0.70;;;;;;;;;;5096983;28;20042;-86
2022/11/14 11:03:41;;;;;;;3.70;0.60;;;;;;;;;;5095056;28;20051;-87
2022/11/14 11:06:26;;;;;;;2.55;0.90;;;;;;;;;;5095520;28;20058;-86
2022/11/14 11:12:39;;;;;;;1.15;0.90;;;;;;;;;;5096669;28;20092;-87
2022/11/14 11:15:29;;;;;;;3.13;1.15;;;;;;;;;;5094411;28;20057;-87
2022/11/14 11:18:25;;;;;;;1.02;0.90;;;;;;;;;;5095093;28;20054;-86
2022/11/14 11:21:15;;;;;;;1.73;1.13;;;;;;;;;;5097014;28;20070;-87
2022/11/14 11:23:59;;;;;;;1.52;0.82;;;;;;;;;;5096584;28;20086;-85
2022/11/14 11:26:43;;;;;;;1.83;0.50;;;;;;;;;;5095364;28;20054;-85
2022/11/14 11:29:27;;;;;;;0.77;0.68;;;;;;;;;;5094591;28;20419;-85
2022/11/14 11:32:23;;;;;;;2.08;0.80;;;;;;;;;;5095213;28;20043;-85
2022/11/14 11:35:15;;;;;;;2.47;0.77;;;;;;;;;;5094803;28;20469;-86
2022/11/14 11:38:01;;;;;;;1.25;0.65;;;;;;;;;;5095558;28;20089;-85
2022/11/14 11:40:49;;;;;;;1.17;0.90;;;;;;;;;;5095268;28;20050;-85
2022/11/14 11:43:48;;;;;;;1.75;0.50;;;;;;;;;;5095199;28;20050;-85
2022/11/14 11:46:45;;;;;;;1.27;0.70;;;;;;;;;;5097022;28;20507;-85
2022/11/14 11:49:29;;;;;;;0.73;0.68;;;;;;;;;;5095321;28;20051;-84
2022/11/14 11:52:22;;;;;;;2.75;0.60;;;;;;;;;;5094297;28;20550;-85
2022/11/14 11:55:17;;;;;;;0.97;0.60;;;;;;;;;;5094854;28;20055;-86
2022/11/14 11:58:03;;;;;;;0.80;0.68;;;;;;;;;;5095192;28;20089;-85
2022/11/14 12:00:55;;;;;;;0.68;0.50;;;;;;;;;;5075614;28;20056;-86
2022/11/14 12:03:48;;;;;;;1.25;0.75;;;;;;;;;;5079545;28;20255;-85
2022/11/14 12:06:40;;;;;;;1.08;0.70;;;;;;;;;;5095528;28;20039;-85
2022/11/14 12:09:31;;;;;;;2.03;0.90;;;;;;;;;;5095700;28;20058;-86
2022/11/14 12:12:27;;;;;;;3.70;1.00;;;;;;;;;;5094066;28;20093;-86
2022/11/14 12:15:23;;;;;;;2.97;0.80;;;;;;;;;;5092708;28;20119;-86
2022/11/14 12:18:58;;;;;;;1.40;1.00;;;;;;;;;;5095627;28;20568;-87
2022/11/14 12:22:16;;;;;;;2.38;0.90;;;;;;;;;;5092662;28;20047;-86
2022/11/14 12:25:39;;;;;;;1.85;0.90;;;;;;;;;;5093284;28;20416;-85
2022/11/14 12:29:05;;;;;;;4.13;1.60;;;;;;;;;;5095065;28;20047;-86
2022/11/14 12:31:57;;;;;;;1.55;0.90;;;;;;;;;;5077722;28;20096;-86
2022/11/14 12:34:44;;;;;;;2.13;0.90;;;;;;;;;;5094198;28;20089;-86
2022/11/14 12:37:43;;;;;;;1.45;0.70;;;;;;;;;;5092986;28;20046;-86
2022/11/14 12:40:34;;;;;;;2.88;0.98;;;;;;;;;;5094134;28;20113;-86
2022/11/14 12:43:33;;;;;;;1.25;0.80;;;;;;;;;;5093466;28;20043;-86
2022/11/14 12:46:17;;;;;;;1.95;1.00;;;;;;;;;;5092882;28;20531;-87
2022/11/14 12:49:39;;;;;;;3.53;1.00;;;;;;;;;;5094044;28;20051;-86
2022/11/14 12:52:44;;;;;;;2.13;0.50;;;;;;;;;;5095135;28;20043;-86
2022/11/14 12:55:28;;;;;;;1.17;0.80;;;;;;;;;;5093304;28;20055;-86
2022/11/14 12:58:27;;;;;;;1.88;0.77;;;;;;;;;;5095545;28;20051;-85
2022/11/14 13:01:20;;;;;;;1.45;0.88;;;;;;;;;;5095265;28;20039;-84
2022/11/14 13:04:39;;;;;;;2.47;0.68;;;;;;;;;;5093178;28;20084;-85
2022/11/14 13:08:05;;;;;;;4.63;0.80;;;;;;;;;;5093627;28;20051;-84
2022/11/14 13:10:50;;;;;;;1.33;0.80;;;;;;;;;;5095782;28;20043;-83
2022/11/14 13:23:26;;;;;;;2.25;0.70;;;;;;;;;;5099125;28;20515;-84
2022/11/14 13:26:10;;;;;;;1.60;0.80;;;;;;;;;;5098836;28;20050;-83
2022/11/14 13:28:56;;;;;;;7.47;1.42;;;;;;;;;;5099321;28;20082;-83
2022/11/14 13:31:49;;;;;;;4.63;1.40;;;;;;;;;;5097792;28;20035;-84
2022/11/14 13:34:49;;;;;;;3.65;1.70;;;;;;;;;;5098494;28;20105;-84
2022/11/14 13:38:02;;;;;;;4.78;1.90;;;;;;;;;;5099071;28;20249;-84
2022/11/14 13:41:24;;;;;;;2.60;1.30;;;;;;;;;;5098161;28;20451;-82
2022/11/14 13:44:36;;;;;;;6.10;1.52;;;;;;;;;;5097326;28;20553;-83
2022/11/14 13:47:28;;;;;;;4.00;2.20;;;;;;;;;;5098525;28;20213;-84
2022/11/14 13:50:15;;;;;;;3.58;1.50;;;;;;;;;;5098120;28;20047;-85
2022/11/14 13:53:00;;;;;;;3.28;1.60;;;;;;;;;;5098364;28;20052;-84
2022/11/14 13:56:03;;;;;;;3.78;1.60;;;;;;;;;;5099577;28;20046;-85
2022/11/14 13:59:21;;;;;;;1.98;1.20;;;;;;;;;;5100949;28;20113;-85
2022/11/14 14:02:26;;;;;;;2.53;1.40;;;;;;;;;;5099027;28;20047;-85
2022/11/14 14:05:24;;;;;;;2.25;1.40;;;;;;;;;;5099023;28;20074;-85
2022/11/14 14:08:27;;;;;;;1.67;0.98;;;;;;;;;;5098478;28;20562;-85
2022/11/14 14:11:51;;;;;;;2.45;0.98;;;;;;;;;;5099707;28;20563;-84
2022/11/14 14:15:02;;;;;;;4.85;1.20;;;;;;;;;;5098116;28;20051;-84
2022/11/14 14:17:46;;;;;;;1.85;1.15;;;;;;;;;;5099789;28;20058;-85
2022/11/14 14:20:42;;;;;;;1.70;1.05;;;;;;;;;;5098916;28;20078;-84
2022/11/14 14:24:02;;;;;;;2.30;1.10;;;;;;;;;;5098477;28;20067;-85
2022/11/14 14:26:59;;;;;;;3.83;2.30;;;;;;;;;;5098933;28;20051;-85
2022/11/14 14:30:06;;;;;;;3.40;2.55;;;;;;;;;;5098484;28;20066;-84
2022/11/14 14:33:08;;;;;;;3.58;2.63;;;;;;;;;;5097730;28;20043;-84
2022/11/14 14:35:53;;;;;;;4.28;3.10;;;;;;;;;;5097507;28;20043;-83
2022/11/14 14:38:37;;;;;;;4.63;3.25;;;;;;;;;;5099873;28;20131;-84
2022/11/14 14:41:21;;;;;;;4.78;3.38;;;;;;;;;;5097649;28;20519;-84
2022/11/14 14:44:18;;;;;;;4.50;3.40;;;;;;;;;;5098110;28;20161;-83
2022/11/14 14:47:32;;;;;;;5.60;3.50;;;;;;;;;;5098015;28;20043;-83
2022/11/14 14:50:39;;;;;;;5.40;3.60;;;;;;;;;;5097614;28;20051;-82
2022/11/14 14:53:29;;;;;;;6.68;3.60;;;;;;;;;;5097655;28;20054;-83
2022/11/14 14:56:19;;;;;;;5.85;3.90;;;;;;;;;;5097173;28;20421;-82
2022/11/14 14:59:22;;;;;;;4.70;3.38;;;;;;;;;;5097325;28;20070;-82
2022/11/14 15:02:14;;;;;;;5.28;3.45;;;;;;;;;;5095280;28;20039;-84
2022/11/14 15:04:59;;;;;;;6.82;3.38;;;;;;;;;;5097386;28;20083;-84
2022/11/14 15:07:45;;;;;;;4.88;3.60;;;;;;;;;;5105924;28;20054;-84
2022/11/14 15:10:30;;;;;;;4.70;3.40;;;;;;;;;;5102779;28;20047;-83
2022/11/14 15:13:17;;;;;;;4.82;3.30;;;;;;;;;;5099856;28;20116;-86
2022/11/14 15:16:02;;;;;;;4.35;2.90;;;;;;;;;;5100263;28;20055;-84
2022/11/14 15:18:48;;;;;;;4.65;3.38;;;;;;;;;;5098880;28;20156;-85
2022/11/14 15:21:32;;;;;;;5.15;3.15;;;;;;;;;;5100621;28;20043;-85
2022/11/14 15:24:22;;;;;;;5.88;3.60;;;;;;;;;;5098726;28;20081;-84
2022/11/14 15:27:32;;;;;;;7.47;3.50;;;;;;;;;;5075427;28;20086;-84
2022/11/14 15:30:35;;;;;;;6.35;3.10;;;;;;;;;;5075067;28;20194;-83
2022/11/14 15:34:02;;;;;;;4.75;3.28;;;;;;;;;;5075296;28;20071;-87
2022/11/14 15:37:17;;;;;;;4.32;3.10;;;;;;;;;;5071369;28;20047;-84
2022/11/14 15:40:21;;;;;;;4.22;2.90;;;;;;;;;;5075564;28;20047;-84
2022/11/14 15:43:37;;;;;;;4.77;3.07;;;;;;;;;;5075217;28;20044;-85
2022/11/14 15:46:39;;;;;;;6.00;3.13;;;;;;;;;;5073712;28;20320;-84
2022/11/14 15:49:26;;;;;;;5.90;3.50;;;;;;;;;;5074633;28;20508;-83
2022/11/14 15:52:29;;;;;;;8.05;4.20;;;;;;;;;;5075638;28;20069;-84
2022/11/14 15:55:19;;;;;;;9.60;4.43;;;;;;;;;;5075090;28;20097;-83
2022/11/14 15:58:08;;;;;;;16.98;7.82;;;;;;;;;;5073952;28;20058;-84
2022/11/14 16:00:53;;;;;;;10.75;5.60;;;;;;;;;;5076346;28;20051;-83
2022/11/14 16:03:37;;;;;;;7.35;4.82;;;;;;;;;;5094468;28;20082;-85
2022/11/14 16:06:22;;;;;;;6.78;4.50;;;;;;;;;;5094003;28;20106;-84
2022/11/14 16:09:14;;;;;;;7.20;4.32;;;;;;;;;;5092037;28;20621;-84
2022/11/14 16:11:58;;;;;;;8.48;4.65;;;;;;;;;;5091297;28;20089;-84
2022/11/14 16:14:43;;;;;;;7.72;4.70;;;;;;;;;;5089486;28;20047;-85
2022/11/14 16:17:33;;;;;;;7.60;4.35;;;;;;;;;;5091246;28;20539;-85
2022/11/14 16:20:22;;;;;;;7.22;5.03;;;;;;;;;;5092668;28;20149;-84
2022/11/14 16:23:11;;;;;;;8.95;4.85;;;;;;;;;;5095743;28;20031;-85
2022/11/14 16:25:54;;;;;;;6.35;4.43;;;;;;;;;;5097616;28;20047;-85
2022/11/14 16:28:38;;;;;;;7.20;3.50;;;;;;;;;;5093730;28;20051;-84
2022/11/14 16:31:22;;;;;;;8.48;4.63;;;;;;;;;;5094354;28;20177;-83
2022/11/14 16:34:14;;;;;;;8.90;5.05;;;;;;;;;;5091393;28;20128;-83
2022/11/14 16:37:00;;;;;;;9.07;5.40;;;;;;;;;;5091728;28;20063;-82
2022/11/14 16:39:44;;;;;;;6.25;4.50;;;;;;;;;;5072956;28;20123;-82
2022/11/14 16:42:28;;;;;;;12.73;5.97;;;;;;;;;;5072792;28;20047;-82
2022/11/14 16:45:12;;;;;;;14.45;7.50;;;;;;;;;;5072068;28;20059;-83
2022/11/14 16:47:56;;;;;;;8.85;6.20;;;;;;;;;;5072869;28;20094;-83
2022/11/14 16:50:43;;;;;;;;;;;;;;;;;;5072966;28;20113;-82
2022/11/14 16:53:28;;;;;;;6.03;3.88;;;;;;;;;;5074213;28;19939;-82
2022/11/14 16:56:12;;;;;;;5.68;3.60;;;;;;;;;;5079723;28;20527;-87
2022/11/14 16:58:56;;;;;;;6.00;4.28;;;;;;;;;;5094623;28;20051;-84
2022/11/14 17:01:40;;;;;;;9.57;5.45;;;;;;;;;;5094875;28;20074;-84
2022/11/14 17:04:24;;;;;;;13.45;6.70;;;;;;;;;;5094786;28;20565;-84
2022/11/14 17:07:08;;;;;;;;;;;;;;;;;;5095443;28;20047;-86
2022/11/14 17:09:52;;;;;;;;;;;;;;;;;;5097105;28;19961;-84
2022/11/14 17:12:36;;;;;;;15.40;8.60;;;;;;;;;;5093437;28;20425;-84
2022/11/14 17:15:20;;;;;;;;;;;;;;;;;;5092596;28;20529;-84